Time;durP1;ratioP1;P1;durP2;ratioP2;P2;SDS_P1;SDS_P2;PMS_P1;PMS_P2;Temp;Humidity;BMP_temperature;BMP_pressure;BME280_temperature;BME280_humidity;BME280_pressure;Samples;Min_cycle;Max_cycle;Signal;HPM_P1;HPM_P2
2021/07/17 08:41:01;;;;;;;6.80;5.40;;;22.80;91.70;;;;;;5070503;27;20837;-60
2021/07/17 08:43:27;;;;;;;6.40;5.75;;;22.70;91.80;;;;;;5081023;28;20113;-65
2021/07/17 09:04:29;;;;;;;9.52;7.30;;;22.50;92.00;;;;;;5101917;27;20358;-59
2021/07/17 09:06:54;;;;;;;8.98;6.93;;;22.50;92.30;;;;;;5084516;28;20108;-59
2021/07/17 09:09:30;;;;;;;9.52;6.43;;;22.50;92.40;;;;;;5067510;28;20403;-59
2021/07/17 09:11:56;;;;;;;7.15;6.45;;;22.60;92.50;;;;;;5079523;28;20038;-59
2021/07/17 09:14:38;;;;;;;11.23;6.60;;;22.50;92.50;;;;;;5084971;28;20032;-59
2021/07/17 09:17:04;;;;;;;11.80;6.82;;;22.60;92.50;;;;;;5078109;28;20103;-59
2021/07/17 09:19:30;;;;;;;11.43;6.22;;;22.60;92.50;;;;;;5080294;28;20104;-59
2021/07/17 09:21:55;;;;;;;7.97;6.32;;;22.60;92.60;;;;;;5073465;28;20052;-59
2021/07/17 09:24:21;;;;;;;7.32;6.47;;;22.60;92.60;;;;;;5069377;28;20029;-59
2021/07/17 09:26:56;;;;;;;11.05;6.80;;;22.70;92.60;;;;;;5085105;28;20040;-60
2021/07/17 09:29:21;;;;;;;12.88;6.32;;;22.60;92.60;;;;;;5080437;28;20108;-61
2021/07/17 09:31:50;;;;;;;8.93;6.05;;;22.70;92.70;;;;;;5077137;28;20028;-59
2021/07/17 09:34:17;;;;;;;10.20;6.75;;;22.70;92.70;;;;;;5065158;28;20053;-62
2021/07/17 09:37:02;;;;;;;8.48;6.40;;;22.60;92.60;;;;;;5074117;28;20479;-59
2021/07/17 09:39:28;;;;;;;10.48;6.65;;;22.70;92.60;;;;;;5048428;28;20032;-58
2021/07/17 09:42:11;;;;;;;6.57;5.72;;;22.80;92.60;;;;;;5064919;28;20029;-60
2021/07/17 09:44:37;;;;;;;11.23;6.70;;;22.70;92.50;;;;;;5063815;28;20059;-63
2021/07/17 09:47:13;;;;;;;8.75;6.45;;;22.80;92.60;;;;;;5068948;28;20471;-59
2021/07/17 09:49:38;;;;;;;7.70;5.97;;;22.80;92.50;;;;;;5086909;28;20430;-60
2021/07/17 09:52:14;;;;;;;8.40;5.70;;;22.80;92.60;;;;;;5058228;28;20020;-59
2021/07/17 09:54:40;;;;;;;7.43;5.70;;;22.80;92.40;;;;;;5083198;28;20090;-59
2021/07/17 09:57:06;;;;;;;6.20;4.97;;;22.80;92.50;;;;;;5076616;28;20121;-60
2021/07/17 09:59:31;;;;;;;6.78;5.47;;;22.80;92.50;;;;;;5075528;28;20059;-60
2021/07/17 10:01:57;;;;;;;7.07;5.65;;;22.70;92.60;;;;;;5081104;28;20028;-61
2021/07/17 10:04:22;;;;;;;8.68;6.03;;;22.80;92.70;;;;;;5062939;28;20846;-60
2021/07/17 10:06:56;;;;;;;9.90;5.88;;;22.70;92.70;;;;;;5055719;28;20413;-59
2021/07/17 10:09:23;;;;;;;10.80;6.78;;;22.70;92.70;;;;;;5060524;28;20364;-59
2021/07/17 10:12:02;;;;;;;8.40;5.65;;;22.70;92.80;;;;;;5059634;28;20459;-59
2021/07/17 10:14:38;;;;;;;6.85;5.70;;;22.70;92.80;;;;;;5052849;28;20499;-60
2021/07/17 10:17:08;;;;;;;8.25;6.13;;;22.70;92.70;;;;;;5045680;28;20043;-59
2021/07/17 10:19:34;;;;;;;8.82;5.20;;;22.70;92.80;;;;;;5036935;28;20032;-58
2021/07/17 10:22:00;;;;;;;9.75;5.82;;;22.70;92.80;;;;;;5047995;28;20105;-59
2021/07/17 10:24:26;;;;;;;5.88;5.07;;;22.70;92.80;;;;;;5034817;28;20037;-61
2021/07/17 10:26:52;;;;;;;6.45;5.57;;;22.70;92.80;;;;;;5013624;28;20017;-60
2021/07/17 10:29:18;;;;;;;6.03;5.03;;;22.70;92.70;;;;;;5049135;28;20368;-59
2021/07/17 10:31:44;;;;;;;8.82;6.00;;;22.80;92.70;;;;;;5042494;28;20539;-60
2021/07/17 10:34:10;;;;;;;7.80;5.53;;;22.70;92.90;;;;;;5038310;28;20028;-57
2021/07/17 10:36:39;;;;;;;6.75;5.70;;;22.80;93.00;;;;;;5044290;28;20403;-58
2021/07/17 10:39:06;;;;;;;5.65;4.63;;;22.80;92.90;;;;;;5030870;28;20036;-59
2021/07/17 10:41:35;;;;;;;7.80;5.57;;;22.80;92.80;;;;;;5007184;28;20100;-59
2021/07/17 10:44:01;;;;;;;8.75;5.47;;;22.80;92.80;;;;;;5012470;28;20176;-59
2021/07/17 10:46:34;;;;;;;7.57;5.20;;;22.80;92.90;;;;;;5038716;28;20767;-59
2021/07/17 10:49:01;;;;;;;5.40;4.75;;;22.80;92.90;;;;;;5044244;28;20063;-59
2021/07/17 10:51:33;;;;;;;6.88;5.45;;;22.80;93.00;;;;;;5040830;28;20033;-60
2021/07/17 10:54:01;;;;;;;6.95;5.50;;;22.80;92.90;;;;;;5043960;28;20032;-59
2021/07/17 10:56:29;;;;;;;8.52;5.07;;;22.80;92.90;;;;;;5049589;28;20056;-61
2021/07/17 10:59:10;;;;;;;8.95;6.10;;;22.80;92.80;;;;;;5040978;28;20025;-59
2021/07/17 11:02:01;;;;;;;5.72;4.80;;;22.80;93.10;;;;;;5003513;28;22284;-57
2021/07/17 11:04:50;;;;;;;11.45;10.25;;;29.20;84.00;;;;;;4965625;28;20046;-59
2021/07/17 11:07:16;;;;;;;11.88;10.75;;;33.20;58.50;;;;;;4983144;28;20023;-59
2021/07/17 11:09:51;;;;;;;12.93;11.77;;;35.00;52.00;;;;;;4985335;28;20029;-60
2021/07/17 11:12:27;;;;;;;13.50;12.10;;;36.00;48.20;;;;;;4990280;28;20026;-59
2021/07/17 11:14:53;;;;;;;12.55;11.45;;;36.90;46.00;;;;;;4990603;28;20108;-62
2021/07/17 11:17:48;;;;;;;11.77;10.73;;;38.20;43.70;;;;;;4982726;28;20026;-59
2021/07/17 11:20:29;;;;;;;13.48;12.07;;;36.60;45.00;;;;;;4989560;28;20041;-60
2021/07/17 11:23:03;;;;;;;13.10;11.88;;;35.40;47.80;;;;;;4989319;28;20417;-59
2021/07/17 11:25:29;;;;;;;13.07;11.77;;;35.00;48.20;;;;;;4989259;28;20104;-60
2021/07/17 11:27:55;;;;;;;12.32;11.18;;;35.10;48.50;;;;;;4990257;28;20118;-59
2021/07/17 11:30:22;;;;;;;19.25;16.80;;;35.70;47.80;;;;;;4981594;28;20037;-59
2021/07/17 11:33:06;;;;;;;13.00;11.82;;;33.50;50.50;;;;;;4974959;28;20117;-61
2021/07/17 11:35:38;;;;;;;96.67;69.53;;;30.80;60.40;;;;;;4981256;28;20037;-59
2021/07/17 11:38:05;;;;;;;76.78;57.53;;;30.50;66.10;;;;;;4978238;28;20349;-60
2021/07/17 11:40:31;;;;;;;73.75;53.92;;;30.10;68.40;;;;;;4980685;28;20094;-59
2021/07/17 11:43:03;;;;;;;75.25;55.50;;;29.40;72.20;;;;;;4983246;28;20082;-58
2021/07/17 11:45:28;;;;;;;74.57;55.38;;;29.10;73.30;;;;;;4973287;28;20027;-60
2021/07/17 11:47:54;;;;;;;78.25;56.83;;;29.40;72.60;;;;;;4981878;28;20172;-60
2021/07/17 11:50:21;;;;;;;74.90;55.83;;;28.70;74.60;;;;;;4980152;28;20022;-59
2021/07/17 11:52:47;;;;;;;79.03;55.28;;;28.00;78.00;;;;;;4980174;28;20037;-59
2021/07/17 11:55:14;;;;;;;73.50;53.63;;;28.40;77.50;;;;;;4979368;28;20027;-59
2021/07/17 11:57:41;;;;;;;77.05;55.80;;;28.60;76.80;;;;;;4981428;28;20045;-58
2021/07/17 12:00:08;;;;;;;69.10;55.00;;;28.90;74.70;;;;;;4983961;28;20432;-59
2021/07/17 12:02:34;;;;;;;72.57;53.13;;;28.60;77.00;;;;;;4978245;28;20595;-59
2021/07/17 12:05:10;;;;;;;70.20;51.92;;;28.50;77.00;;;;;;5011870;28;20022;-60
2021/07/17 12:07:37;;;;;;;69.07;53.28;;;28.50;76.50;;;;;;5012981;28;20474;-59
2021/07/17 12:10:17;;;;;;;61.10;46.40;;;28.10;78.70;;;;;;4992859;28;20864;-59
2021/07/17 12:12:46;;;;;;;66.72;50.40;;;29.70;74.10;;;;;;5021428;28;20448;-60
2021/07/17 12:15:16;;;;;;;63.15;47.13;;;28.60;76.10;;;;;;5010963;28;20460;-58
2021/07/17 12:17:42;;;;;;;63.50;46.38;;;28.50;77.50;;;;;;5010043;28;20057;-58
2021/07/17 12:20:30;;;;;;;62.42;45.75;;;29.10;74.30;;;;;;5008268;28;20199;-60
2021/07/17 12:23:02;;;;;;;59.15;45.15;;;30.60;69.10;;;;;;5015663;28;20034;-59
2021/07/17 12:25:38;;;;;;;61.50;43.97;;;29.80;70.40;;;;;;5012968;28;20136;-59
2021/07/17 12:28:06;;;;;;;59.92;46.90;;;29.50;72.70;;;;;;5021871;28;20025;-59
2021/07/17 12:30:36;;;;;;;57.92;43.97;;;28.60;75.10;;;;;;5016734;28;20029;-60
2021/07/17 12:33:12;;;;;;;426.58;199.82;;;28.30;78.50;;;;;;5010593;28;20107;-61
2021/07/17 12:35:38;;;;;;;100.78;63.35;;;26.70;81.60;;;;;;5012549;28;20037;-59
2021/07/17 12:38:23;;;;;;;144.60;77.10;;;25.70;85.70;;;;;;5011696;28;20032;-58
2021/07/17 12:41:06;;;;;;;172.98;84.78;;;25.00;88.80;;;;;;5020545;28;20596;-59
2021/07/17 12:43:35;;;;;;;134.65;72.13;;;24.50;89.10;;;;;;5012408;28;20044;-58
2021/07/17 12:46:09;;;;;;;134.95;70.28;;;24.20;90.60;;;;;;5011222;28;20045;-58
2021/07/17 12:48:35;;;;;;;135.60;70.97;;;24.00;91.40;;;;;;5007922;28;20030;-59
2021/07/17 12:51:05;;;;;;;137.20;68.82;;;23.80;91.60;;;;;;5010991;28;20024;-67
2021/07/17 12:53:31;;;;;;;134.75;67.47;;;23.70;91.90;;;;;;5007840;28;20030;-64
2021/07/17 12:55:57;;;;;;;115.97;65.50;;;23.60;92.00;;;;;;5001622;28;20040;-64
2021/07/17 12:58:23;;;;;;;121.35;65.43;;;23.60;92.10;;;;;;5009577;28;20030;-63
2021/07/17 13:00:48;;;;;;;120.82;62.55;;;23.50;92.30;;;;;;4980067;28;20041;-63
2021/07/17 13:03:17;;;;;;;113.35;62.10;;;23.50;92.40;;;;;;5007752;28;20136;-64
2021/07/17 13:05:48;;;;;;;123.20;62.08;;;23.40;92.50;;;;;;5004747;28;20068;-64
2021/07/17 13:08:24;;;;;;;116.03;62.03;;;23.40;92.60;;;;;;5015001;28;20034;-64
2021/07/17 13:10:50;;;;;;;114.38;60.97;;;23.30;92.70;;;;;;4993207;28;20037;-63
2021/07/17 13:13:16;;;;;;;109.20;58.08;;;23.30;92.80;;;;;;5016374;28;20497;-63
2021/07/17 13:15:50;;;;;;;104.55;57.35;;;23.30;92.80;;;;;;5015635;28;20030;-63
2021/07/17 13:18:23;;;;;;;110.00;57.90;;;23.30;92.80;;;;;;4971238;28;20481;-64
2021/07/17 13:21:09;;;;;;;121.47;58.00;;;23.30;92.80;;;;;;4990997;28;20049;-63
2021/07/17 13:23:55;;;;;;;105.20;56.03;;;23.30;92.80;;;;;;5000623;28;20133;-63
2021/07/17 13:26:25;;;;;;;111.65;58.10;;;23.30;92.80;;;;;;5011340;28;20033;-64
2021/07/17 13:28:52;;;;;;;109.93;56.78;;;23.40;92.80;;;;;;5000852;28;20044;-63
2021/07/17 13:31:18;;;;;;;113.88;56.38;;;23.40;92.70;;;;;;5012015;28;20041;-62
2021/07/17 13:33:44;;;;;;;105.43;54.90;;;23.40;92.70;;;;;;4994680;28;20033;-63
2021/07/17 13:36:09;;;;;;;100.60;53.70;;;23.40;92.70;;;;;;5014350;28;20108;-63
2021/07/17 13:38:36;;;;;;;110.00;54.10;;;23.50;92.70;;;;;;5012724;28;20695;-63
2021/07/17 13:41:11;;;;;;;93.93;51.88;;;23.40;92.60;;;;;;5012591;28;20026;-63
2021/07/17 13:43:39;;;;;;;96.75;50.13;;;23.40;92.70;;;;;;5012485;28;20030;-64
2021/07/17 13:46:04;;;;;;;94.38;50.38;;;23.40;92.50;;;;;;5010740;28;20029;-63
2021/07/17 13:48:30;;;;;;;96.15;50.97;;;23.50;92.60;;;;;;5014569;28;20021;-63
2021/07/17 13:51:25;;;;;;;94.68;50.13;;;23.50;92.50;;;;;;5015341;28;20065;-64
2021/07/17 13:53:50;;;;;;;89.87;48.70;;;23.50;92.40;;;;;;4997147;28;20050;-64
2021/07/17 13:56:16;;;;;;;82.18;47.25;;;23.50;92.40;;;;;;4995689;28;20044;-64
2021/07/17 13:58:41;;;;;;;88.63;45.90;;;23.00;92.30;;;;;;5016618;28;20103;-64
2021/07/17 14:01:17;;;;;;;84.28;46.75;;;23.50;92.40;;;;;;5016489;28;20044;-63
2021/07/17 14:03:43;;;;;;;81.95;45.38;;;23.50;92.40;;;;;;5015716;28;20053;-61
2021/07/17 14:06:12;;;;;;;82.28;44.47;;;23.60;92.40;;;;;;5013065;28;20029;-63
2021/07/17 14:08:42;;;;;;;84.00;46.60;;;23.60;92.30;;;;;;5014189;28;20108;-60
2021/07/17 14:11:09;;;;;;;85.43;46.65;;;23.70;92.40;;;;;;5015706;28;20022;-62
2021/07/17 14:13:35;;;;;;;85.63;45.67;;;23.90;92.30;;;;;;5017971;28;20393;-60
2021/07/17 14:16:02;;;;;;;81.40;43.65;;;23.90;92.30;;;;;;5002666;28;20033;-60
2021/07/17 14:18:28;;;;;;;81.82;43.97;;;24.00;92.10;;;;;;5010351;28;20054;-59
2021/07/17 14:20:53;;;;;;;77.68;40.95;;;24.00;92.20;;;;;;5018022;28;20216;-61
2021/07/17 14:23:22;;;;;;;77.63;41.55;;;23.90;92.10;;;;;;5015490;28;20083;-61
2021/07/17 14:25:48;;;;;;;76.03;42.45;;;24.00;92.10;;;;;;5002146;28;20029;-61
2021/07/17 14:28:13;;;;;;;87.00;44.75;;;24.10;92.00;;;;;;5021989;28;20493;-61
2021/07/17 14:30:42;;;;;;;76.60;40.70;;;24.30;92.20;;;;;;5014640;28;20030;-61
2021/07/17 14:33:08;;;;;;;75.55;42.90;;;24.20;92.30;;;;;;5015959;28;20342;-61
2021/07/17 14:35:34;;;;;;;80.57;40.50;;;24.20;92.30;;;;;;5012818;28;20029;-59
2021/07/17 14:38:00;;;;;;;75.10;39.65;;;24.20;91.90;;;;;;4999143;28;20037;-64
